createdAt,value
2022-08-03T00:00:27.480Z,24.29
2022-08-03T00:02:54.793Z,24.30
2022-08-03T00:05:22.076Z,24.31
2022-08-03T00:07:49.585Z,24.30
2022-08-03T00:10:17.090Z,24.30
2022-08-03T00:12:44.255Z,24.27
2022-08-03T00:15:16.507Z,24.29
2022-08-03T00:17:52.949Z,24.28
2022-08-03T00:20:24.374Z,24.28
2022-08-03T00:22:51.827Z,24.26
2022-08-03T00:25:19.623Z,24.24
2022-08-03T00:27:48.274Z,24.22
2022-08-03T00:30:16.928Z,24.19
2022-08-03T00:32:45.309Z,24.22
2022-08-03T00:35:26.614Z,24.19
2022-08-03T00:38:00.215Z,24.20
2022-08-03T00:40:27.562Z,24.17
2022-08-03T00:42:59.131Z,24.19
2022-08-03T00:45:31.019Z,24.19
2022-08-03T00:47:58.401Z,24.17
2022-08-03T00:50:26.428Z,24.19
2022-08-03T00:52:54.440Z,24.17
2022-08-03T00:55:21.485Z,24.14
2022-08-03T00:57:48.688Z,24.15
2022-08-03T01:00:17.787Z,24.14
2022-08-03T01:02:45.011Z,24.13
2022-08-03T01:05:12.070Z,24.12
2022-08-03T01:08:14.492Z,24.13
2022-08-03T01:11:03.193Z,24.11
2022-08-03T01:14:03.800Z,24.13
2022-08-03T01:16:55.181Z,24.10
2022-08-03T01:19:46.874Z,24.11
2022-08-03T01:22:17.176Z,24.12
2022-08-03T01:25:05.975Z,24.12
2022-08-03T01:28:10.923Z,24.09
2022-08-03T01:30:38.674Z,24.11
2022-08-03T01:33:12.656Z,24.10
2022-08-03T01:35:45.932Z,24.09
2022-08-03T01:38:15.825Z,24.07
2022-08-03T01:40:43.288Z,24.09
2022-08-03T01:43:13.817Z,24.08
2022-08-03T01:45:41.655Z,24.05
2022-08-03T01:48:08.697Z,24.04
2022-08-03T01:50:35.719Z,24.05
2022-08-03T01:53:02.759Z,24.02
2022-08-03T01:55:29.850Z,24.04
2022-08-03T01:58:05.604Z,24.04
2022-08-03T02:00:33.374Z,24.02
2022-08-03T02:03:00.337Z,24.02
2022-08-03T02:05:27.478Z,24.00
2022-08-03T02:07:54.516Z,23.96
2022-08-03T02:10:34.677Z,23.96
2022-08-03T02:13:03.223Z,23.98
2022-08-03T02:15:30.548Z,23.95
2022-08-03T02:17:58.046Z,23.96
2022-08-03T02:20:25.085Z,23.97
2022-08-03T02:22:52.039Z,23.98
2022-08-03T02:25:19.071Z,24.00
2022-08-03T02:27:53.476Z,24.00
2022-08-03T02:30:21.187Z,23.97
2022-08-03T02:32:52.119Z,23.97
2022-08-03T02:35:19.681Z,23.97
2022-08-03T02:37:50.711Z,23.99
2022-08-03T02:40:19.429Z,23.95
2022-08-03T02:42:47.390Z,23.97
2022-08-03T02:45:14.611Z,23.95
2022-08-03T02:47:54.241Z,23.93
2022-08-03T02:50:22.411Z,23.91
2022-08-03T02:52:49.526Z,23.91
2022-08-03T02:55:17.254Z,23.89
2022-08-03T02:57:44.389Z,23.90
2022-08-03T03:00:11.833Z,23.91
2022-08-03T03:02:38.860Z,23.94
2022-08-03T03:05:56.300Z,23.95
2022-08-03T03:07:57.955Z,23.93
2022-08-03T03:10:25.403Z,23.93
2022-08-03T03:12:54.201Z,23.90
2022-08-03T03:15:21.612Z,23.89
2022-08-03T03:17:50.083Z,23.88
2022-08-03T03:20:30.292Z,23.88
2022-08-03T03:22:59.257Z,23.85
2022-08-03T03:25:26.324Z,23.87
2022-08-03T03:27:53.533Z,23.88
2022-08-03T03:30:20.555Z,23.88
2022-08-03T03:32:47.574Z,23.84
2022-08-03T03:35:14.835Z,23.83
2022-08-03T03:37:41.856Z,23.84
2022-08-03T03:40:09.614Z,23.84
2022-08-03T03:42:38.541Z,23.84
2022-08-03T03:45:08.957Z,23.87
2022-08-03T03:47:36.106Z,23.88
2022-08-03T03:50:07.040Z,23.91
2022-08-03T03:52:34.306Z,23.87
2022-08-03T03:55:01.749Z,23.91
2022-08-03T03:57:29.690Z,23.86
2022-08-03T03:59:57.031Z,23.86
2022-08-03T04:02:24.140Z,23.85
2022-08-03T04:05:09.535Z,23.83
2022-08-03T04:08:20.902Z,23.84
2022-08-03T04:11:01.194Z,23.83
2022-08-03T04:13:40.107Z,23.81
2022-08-03T04:16:07.887Z,23.85
2022-08-03T04:18:35.539Z,23.86
2022-08-03T04:21:04.485Z,23.61
2022-08-03T04:23:34.416Z,23.18
2022-08-03T04:26:02.771Z,23.22
2022-08-03T04:28:31.984Z,23.36
2022-08-03T04:31:01.950Z,23.44
2022-08-03T04:33:30.471Z,23.49
2022-08-03T04:36:02.952Z,23.48
2022-08-03T04:38:34.305Z,23.50
2022-08-03T04:41:01.442Z,23.56
2022-08-03T04:43:31.124Z,23.55
2022-08-03T04:45:58.329Z,23.54
2022-08-03T04:48:25.419Z,23.55
2022-08-03T04:50:52.662Z,23.54
2022-08-03T04:53:19.869Z,23.60
2022-08-03T04:55:47.039Z,23.59
2022-08-03T04:58:14.150Z,23.59
2022-08-03T05:00:41.213Z,23.59
2022-08-03T05:03:23.553Z,23.57
2022-08-03T05:06:10.022Z,23.58
2022-08-03T05:08:45.919Z,23.56
2022-08-03T05:11:15.846Z,23.57
2022-08-03T05:13:43.312Z,23.55
2022-08-03T05:16:10.347Z,23.59
2022-08-03T05:18:40.490Z,23.59
2022-08-03T05:21:07.519Z,23.53
2022-08-03T05:23:34.619Z,23.55
2022-08-03T05:26:01.658Z,23.56
2022-08-03T05:28:28.854Z,23.60
2022-08-03T05:30:55.954Z,23.64
2022-08-03T05:33:22.991Z,23.64
2022-08-03T05:36:02.485Z,23.64
2022-08-03T05:38:34.368Z,23.61
2022-08-03T05:41:21.240Z,23.65
2022-08-03T05:43:54.555Z,23.65
2022-08-03T05:46:25.127Z,23.62
2022-08-03T05:48:52.297Z,23.64
2022-08-03T05:51:19.589Z,23.61
2022-08-03T05:53:46.722Z,23.64
2022-08-03T05:56:16.368Z,23.62
2022-08-03T05:58:45.006Z,23.66
2022-08-03T06:01:12.216Z,23.64
2022-08-03T06:03:39.354Z,23.68
2022-08-03T06:06:06.580Z,23.68
2022-08-03T06:08:33.899Z,23.68
2022-08-03T06:11:01.040Z,23.71
2022-08-03T06:13:28.169Z,23.72
2022-08-03T06:15:55.279Z,23.72
2022-08-03T06:18:22.305Z,23.71
2022-08-03T06:20:50.370Z,23.74
2022-08-03T06:23:19.385Z,23.74
2022-08-03T06:25:47.227Z,23.73
2022-08-03T06:28:51.241Z,23.71
2022-08-03T06:31:06.536Z,23.75
2022-08-03T06:34:31.653Z,23.73
2022-08-03T06:36:20.957Z,23.71
2022-08-03T06:38:48.102Z,23.74
2022-08-03T06:41:15.197Z,23.73
2022-08-03T06:44:03.466Z,23.74
2022-08-03T06:46:29.829Z,23.73
2022-08-03T06:48:56.940Z,23.76
2022-08-03T06:52:04.630Z,23.78
2022-08-03T06:54:11.240Z,23.80
2022-08-03T06:56:38.424Z,23.81
2022-08-03T06:59:05.505Z,23.79
2022-08-03T07:01:32.698Z,23.83
2022-08-03T07:04:00.814Z,23.81
2022-08-03T07:06:27.939Z,23.81
2022-08-03T07:08:59.408Z,23.82
2022-08-03T07:11:27.070Z,23.82
2022-08-03T07:13:54.148Z,23.81
2022-08-03T07:16:21.204Z,23.82
2022-08-03T07:18:48.305Z,23.82
2022-08-03T07:21:17.030Z,23.85
2022-08-03T07:23:44.150Z,23.83
2022-08-03T07:26:11.955Z,23.85
2022-08-03T07:28:39.113Z,23.86
2022-08-03T07:31:06.173Z,23.86
2022-08-03T07:33:33.199Z,23.86
2022-08-03T07:36:00.283Z,23.86
2022-08-03T07:38:27.365Z,23.88
2022-08-03T07:40:54.545Z,23.86
2022-08-03T07:43:21.647Z,23.90
2022-08-03T07:45:48.781Z,23.90
2022-08-03T07:48:16.119Z,23.88
2022-08-03T07:50:43.201Z,23.91
2022-08-03T07:53:10.340Z,23.92
2022-08-03T07:55:37.403Z,23.91
2022-08-03T07:58:10.126Z,23.90
2022-08-03T08:00:37.288Z,23.90
2022-08-03T08:03:04.938Z,23.91
2022-08-03T08:05:32.009Z,23.94
2022-08-03T08:07:59.095Z,23.92
2022-08-03T08:10:26.193Z,23.93
2022-08-03T08:12:53.557Z,23.96
2022-08-03T08:15:20.554Z,23.95
2022-08-03T08:17:48.485Z,23.98
2022-08-03T08:20:27.766Z,23.98
2022-08-03T08:22:57.642Z,23.98
2022-08-03T08:25:25.792Z,23.95
2022-08-03T08:28:31.874Z,23.97
2022-08-03T08:30:40.042Z,23.99
2022-08-03T08:33:08.608Z,23.97
2022-08-03T08:35:37.560Z,23.96
2022-08-03T08:38:05.948Z,23.97
2022-08-03T08:40:33.210Z,23.98
2022-08-03T08:43:00.227Z,24.00
2022-08-03T08:45:27.931Z,24.00
2022-08-03T08:47:59.899Z,24.00
2022-08-03T08:50:28.955Z,23.99
2022-08-03T08:52:56.119Z,24.01
2022-08-03T08:55:23.835Z,24.04
2022-08-03T08:57:52.964Z,24.04
2022-08-03T09:00:20.385Z,24.04
2022-08-03T09:02:47.504Z,24.07
2022-08-03T09:05:22.535Z,24.06
2022-08-03T09:07:58.859Z,24.07
2022-08-03T09:10:26.066Z,24.08
2022-08-03T09:12:53.211Z,24.10
2022-08-03T09:15:25.437Z,24.11
2022-08-03T09:17:54.103Z,24.10
2022-08-03T09:20:22.110Z,24.11
2022-08-03T09:22:56.515Z,24.15
2022-08-03T09:25:37.279Z,24.14
2022-08-03T09:28:12.079Z,24.13
2022-08-03T09:30:40.481Z,24.17
2022-08-03T09:33:08.997Z,24.18
2022-08-03T09:36:02.091Z,24.19
2022-08-03T09:38:29.074Z,24.21
2022-08-03T09:40:59.980Z,24.22
2022-08-03T09:43:28.247Z,24.20
2022-08-03T09:46:15.497Z,24.21
2022-08-03T09:48:42.605Z,24.22
2022-08-03T09:51:12.970Z,24.24
2022-08-03T09:54:02.046Z,24.23
2022-08-03T09:56:45.537Z,24.23
2022-08-03T09:59:14.512Z,24.23
2022-08-03T10:01:42.063Z,24.24
2022-08-03T10:04:14.396Z,24.30
2022-08-03T10:06:41.663Z,24.28
2022-08-03T10:09:09.538Z,24.30
2022-08-03T10:11:41.199Z,24.30
2022-08-03T10:14:10.482Z,24.34
2022-08-03T10:16:39.812Z,24.35
2022-08-03T10:19:08.171Z,24.32
2022-08-03T10:21:39.040Z,24.36
2022-08-03T10:24:07.742Z,24.36
2022-08-03T10:26:39.443Z,24.34
2022-08-03T10:29:21.844Z,24.36
2022-08-03T10:31:57.435Z,24.35
2022-08-03T10:34:27.530Z,24.35
2022-08-03T10:36:57.696Z,24.35
2022-08-03T10:39:25.619Z,24.37
2022-08-03T10:41:52.813Z,24.38
2022-08-03T10:44:21.349Z,24.40
2022-08-03T10:46:51.135Z,24.38
2022-08-03T10:49:19.160Z,24.37
2022-08-03T10:52:02.616Z,24.38
2022-08-03T10:54:58.433Z,24.43
2022-08-03T10:57:47.469Z,24.44
2022-08-03T11:00:27.138Z,24.46
2022-08-03T11:03:10.867Z,24.44
2022-08-03T11:05:49.515Z,24.46
2022-08-03T11:08:20.187Z,24.49
2022-08-03T11:10:47.925Z,24.49
2022-08-03T11:13:19.252Z,24.48
2022-08-03T11:15:47.307Z,24.50
2022-08-03T11:18:14.898Z,24.50
2022-08-03T11:20:56.041Z,24.51
2022-08-03T11:24:04.285Z,24.50
2022-08-03T11:26:34.096Z,24.51
2022-08-03T11:29:29.776Z,24.52
2022-08-03T11:31:57.390Z,24.52
2022-08-03T11:34:24.928Z,24.53
2022-08-03T11:37:23.571Z,24.55
2022-08-03T11:39:53.350Z,24.52
2022-08-03T11:42:23.544Z,24.58
2022-08-03T11:44:51.443Z,24.55
2022-08-03T11:47:18.712Z,24.56
2022-08-03T11:49:50.667Z,24.58
2022-08-03T11:52:18.119Z,24.58
2022-08-03T11:54:45.175Z,24.61
2022-08-03T11:57:12.336Z,24.61
2022-08-03T11:59:39.440Z,24.63
2022-08-03T12:02:10.579Z,24.64
2022-08-03T12:05:01.645Z,24.65
2022-08-03T12:08:03.113Z,24.66
2022-08-03T12:10:17.323Z,24.68
2022-08-03T12:12:46.674Z,24.67
2022-08-03T12:15:13.930Z,24.70
2022-08-03T12:17:57.615Z,24.72
2022-08-03T12:20:34.737Z,24.72
2022-08-03T12:23:05.973Z,24.74
2022-08-03T12:25:39.657Z,24.74
2022-08-03T12:28:36.294Z,24.76
2022-08-03T12:31:02.284Z,24.76
2022-08-03T12:33:29.462Z,24.78
2022-08-03T12:36:09.512Z,24.80
2022-08-03T12:38:39.516Z,24.81
2022-08-03T12:41:16.953Z,24.81
2022-08-03T12:43:49.997Z,24.83
2022-08-03T12:46:19.359Z,24.85
2022-08-03T12:48:59.192Z,24.87
2022-08-03T12:51:27.831Z,24.85
2022-08-03T12:53:55.433Z,24.88
2022-08-03T12:56:22.557Z,24.88
2022-08-03T12:58:50.654Z,24.91
2022-08-03T13:01:17.895Z,24.88
2022-08-03T13:03:50.143Z,24.94
2022-08-03T13:06:21.453Z,24.92
2022-08-03T13:08:50.137Z,24.92
2022-08-03T13:11:47.605Z,24.93
2022-08-03T13:14:19.646Z,24.92
2022-08-03T13:16:50.636Z,24.95
2022-08-03T13:19:17.786Z,24.95
2022-08-03T13:21:53.561Z,24.95
2022-08-03T13:24:31.536Z,24.97
2022-08-03T13:26:59.380Z,25.01
2022-08-03T13:29:26.590Z,25.06
2022-08-03T13:31:53.672Z,25.20
2022-08-03T13:34:23.393Z,25.35
2022-08-03T13:39:58.078Z,25.25
2022-08-03T13:42:30.704Z,25.18
2022-08-03T13:44:57.814Z,25.15
2022-08-03T13:47:30.020Z,25.20
2022-08-03T13:50:00.818Z,25.24
2022-08-03T13:52:33.378Z,25.44
2022-08-03T13:55:01.044Z,25.63
2022-08-03T13:58:04.970Z,25.74
2022-08-03T14:00:26.566Z,25.82
2022-08-03T14:03:02.877Z,25.85
2022-08-03T14:05:32.431Z,25.89
2022-08-03T14:08:04.624Z,25.93
2022-08-03T14:10:36.614Z,25.98
2022-08-03T14:13:04.466Z,25.97
2022-08-03T14:15:31.515Z,26.02
2022-08-03T14:18:12.660Z,26.03
2022-08-03T14:20:49.958Z,26.02
2022-08-03T14:23:22.062Z,25.94
2022-08-03T14:25:55.481Z,25.90
2022-08-03T14:28:29.755Z,25.85
2022-08-03T14:31:01.662Z,25.81
2022-08-03T14:33:34.518Z,25.80
2022-08-03T14:36:02.520Z,25.73
2022-08-03T14:38:31.309Z,25.72
2022-08-03T14:41:01.779Z,25.72
2022-08-03T14:43:33.874Z,25.66
2022-08-03T14:46:01.582Z,25.68
2022-08-03T14:50:26.511Z,25.65
2022-08-03T14:51:15.867Z,25.63
2022-08-03T14:53:42.961Z,25.62
2022-08-03T14:56:10.937Z,25.60
2022-08-03T14:58:38.246Z,25.57
2022-08-03T15:02:02.176Z,25.56
2022-08-03T15:03:57.566Z,25.60
2022-08-03T15:06:24.700Z,25.64
2022-08-03T15:09:13.861Z,25.63
2022-08-03T15:11:39.431Z,25.61
2022-08-03T15:14:09.330Z,25.59
2022-08-03T15:16:37.332Z,25.63
2022-08-03T15:21:57.810Z,25.66
2022-08-03T15:24:28.502Z,25.68
2022-08-03T15:26:55.592Z,25.66
2022-08-03T15:30:09.551Z,25.71
2022-08-03T15:32:09.849Z,25.71
2022-08-03T15:34:37.195Z,25.76
2022-08-03T15:37:15.067Z,25.74
2022-08-03T15:39:58.941Z,25.69
2022-08-03T15:42:29.280Z,25.70
2022-08-03T15:44:56.447Z,25.69
2022-08-03T15:47:23.503Z,25.70
2022-08-03T15:49:50.542Z,25.67
2022-08-03T15:52:17.615Z,25.65
2022-08-03T15:54:44.647Z,25.61
2022-08-03T15:57:11.734Z,25.57
2022-08-03T15:59:39.007Z,25.59
2022-08-03T16:02:06.100Z,25.56
2022-08-03T16:04:36.181Z,25.58
2022-08-03T16:07:05.925Z,25.52
2022-08-03T16:09:42.036Z,25.52
2022-08-03T16:12:11.893Z,25.53
2022-08-03T16:14:52.464Z,25.53
2022-08-03T16:17:21.050Z,25.52
2022-08-03T16:19:48.490Z,25.52
2022-08-03T16:22:19.587Z,25.50
2022-08-03T16:24:58.349Z,25.51
2022-08-03T16:27:37.005Z,25.49
2022-08-03T16:30:08.352Z,25.52
2022-08-03T16:32:35.979Z,25.50
2022-08-03T16:35:03.087Z,25.55
2022-08-03T16:37:39.027Z,25.52
2022-08-03T16:40:17.329Z,25.49
2022-08-03T16:42:46.951Z,25.48
2022-08-03T16:45:14.364Z,25.46
2022-08-03T16:47:41.783Z,25.45
2022-08-03T16:50:17.228Z,25.44
2022-08-03T16:52:46.965Z,25.45
2022-08-03T16:55:43.533Z,25.40
2022-08-03T16:58:03.764Z,25.45
2022-08-03T17:00:33.688Z,25.44
2022-08-03T17:03:04.318Z,25.43
2022-08-03T17:05:43.858Z,25.41
2022-08-03T17:08:26.159Z,25.43
2022-08-03T17:10:55.253Z,25.46
2022-08-03T17:13:22.976Z,25.45
2022-08-03T17:16:06.278Z,25.46
2022-08-03T17:18:36.553Z,25.42
2022-08-03T17:21:04.251Z,25.37
2022-08-03T17:23:50.973Z,25.38
2022-08-03T17:26:21.831Z,25.35
2022-08-03T17:28:57.261Z,25.37
2022-08-03T17:31:32.224Z,25.36
2022-08-03T17:34:09.409Z,25.34
2022-08-03T17:37:02.736Z,25.37
2022-08-03T17:39:42.140Z,25.40
2022-08-03T17:42:29.216Z,25.40
2022-08-03T17:44:58.519Z,25.39
2022-08-03T17:47:42.342Z,25.36
2022-08-03T17:50:25.203Z,25.34
2022-08-03T17:53:07.263Z,25.30
2022-08-03T17:55:54.993Z,25.28
2022-08-03T17:58:53.768Z,25.30
2022-08-03T18:02:02.120Z,25.28
2022-08-03T18:04:30.819Z,25.29
2022-08-03T18:07:11.951Z,25.27
2022-08-03T18:10:04.201Z,25.30
2022-08-03T18:12:29.225Z,25.26
2022-08-03T18:15:01.490Z,25.29
2022-08-03T18:17:58.238Z,25.25
2022-08-03T18:20:34.140Z,25.23
2022-08-03T18:23:07.966Z,25.19
2022-08-03T18:28:23.544Z,25.15
2022-08-03T18:30:53.275Z,25.15
2022-08-03T18:34:16.178Z,25.15
2022-08-03T18:36:17.480Z,25.14
2022-08-03T18:38:47.227Z,25.10
2022-08-03T18:41:20.688Z,25.07
2022-08-03T18:44:07.829Z,25.09
2022-08-03T18:50:24.545Z,25.07
2022-08-03T19:00:54.810Z,25.04
2022-08-03T19:07:07.907Z,25.06
2022-08-03T19:21:47.338Z,24.99
2022-08-03T19:25:02.275Z,24.99
2022-08-03T19:28:39.583Z,25.02
2022-08-03T19:46:06.140Z,25.00
2022-08-03T19:49:57.114Z,24.94
2022-08-03T20:16:57.633Z,24.97
2022-08-03T20:19:24.903Z,24.96
2022-08-03T20:22:01.181Z,24.94
2022-08-03T20:24:35.242Z,24.96
2022-08-03T20:27:07.862Z,24.92
2022-08-03T20:30:06.232Z,24.88
2022-08-03T20:32:31.456Z,24.87
2022-08-03T20:34:59.356Z,24.92
2022-08-03T20:37:30.453Z,24.88
2022-08-03T20:51:49.972Z,24.96
2022-08-03T20:56:12.381Z,24.95
2022-08-03T20:58:50.709Z,24.94
2022-08-03T21:01:27.896Z,24.92
2022-08-03T21:04:11.946Z,24.93
2022-08-03T21:06:53.675Z,24.93
2022-08-03T21:09:24.365Z,24.94
2022-08-03T21:12:02.156Z,24.91
2022-08-03T21:12:58.031Z,25.17
2022-08-03T21:14:39.603Z,24.91
2022-08-03T21:17:25.035Z,24.92
2022-08-03T21:19:54.040Z,24.90
2022-08-03T21:22:22.784Z,24.88
2022-08-03T21:24:54.119Z,24.88
2022-08-03T21:27:24.607Z,24.86
2022-08-03T21:29:53.365Z,24.86
2022-08-03T21:32:32.601Z,24.88
2022-08-03T21:35:01.126Z,24.88
2022-08-03T21:37:28.511Z,24.86
2022-08-03T21:39:55.819Z,24.87
2022-08-03T21:42:25.863Z,24.86
2022-08-03T21:44:53.620Z,24.84
2022-08-03T21:47:23.792Z,24.83
2022-08-03T21:50:08.238Z,24.83
2022-08-03T21:52:40.281Z,24.83
2022-08-03T21:55:07.938Z,24.82
2022-08-03T21:57:37.628Z,24.80
2022-08-03T22:00:18.649Z,24.82
2022-08-03T22:02:53.193Z,24.79
2022-08-03T22:05:29.035Z,24.78
2022-08-03T22:08:10.125Z,24.79
2022-08-03T22:10:37.316Z,24.78
2022-08-03T22:13:04.418Z,24.79
2022-08-03T22:15:31.676Z,24.77
2022-08-03T22:17:58.721Z,24.78
2022-08-03T22:20:25.907Z,24.78
2022-08-03T22:22:56.011Z,24.77
2022-08-03T22:25:27.493Z,24.76
2022-08-03T22:27:54.708Z,24.76
2022-08-03T22:30:21.927Z,24.77
2022-08-03T22:32:50.420Z,24.74
2022-08-03T22:35:17.508Z,24.73
2022-08-03T22:37:44.597Z,24.72
2022-08-03T22:40:14.407Z,24.73
2022-08-03T22:42:42.461Z,24.70
2022-08-03T22:45:09.706Z,24.70
2022-08-03T22:47:37.989Z,24.70
2022-08-03T22:50:31.968Z,24.68
2022-08-03T22:53:00.779Z,24.68
2022-08-03T22:55:27.997Z,24.70
2022-08-03T22:57:55.725Z,24.70
2022-08-03T23:00:23.911Z,24.70
2022-08-03T23:02:51.192Z,24.69
2022-08-03T23:06:01.494Z,24.68
2022-08-03T23:08:10.370Z,24.65
2022-08-03T23:10:37.461Z,24.67
2022-08-03T23:13:04.587Z,24.66
2022-08-03T23:15:31.770Z,24.67
2022-08-03T23:17:59.106Z,24.66
2022-08-03T23:20:26.863Z,24.66
2022-08-03T23:22:55.964Z,24.65
2022-08-03T23:25:23.025Z,24.65
2022-08-03T23:28:05.186Z,24.65
2022-08-03T23:30:33.650Z,24.63
2022-08-03T23:33:00.849Z,24.62
2022-08-03T23:36:28.622Z,24.63
2022-08-03T23:38:36.947Z,24.63
2022-08-03T23:41:04.977Z,24.64
2022-08-03T23:43:44.992Z,24.64
2022-08-03T23:46:20.006Z,24.62
2022-08-03T23:48:47.173Z,24.62
2022-08-03T23:51:28.043Z,24.63
2022-08-03T23:54:01.775Z,24.63
2022-08-03T23:57:11.326Z,24.63
